sensor_id;sensor_type;location;lat;lon;timestamp;P1;durP1;ratioP1;P2;durP2;ratioP2
81848;SDS011;71298;44.104;3.064;2024-01-15T07:39:48;39.33;;;17.52;;
81848;SDS011;71298;44.104;3.064;2024-01-15T07:42:14;35.58;;;18.60;;
81848;SDS011;71298;44.104;3.064;2024-01-15T07:44:41;42.33;;;18.17;;
81848;SDS011;71298;44.104;3.064;2024-01-15T07:47:07;36.67;;;16.27;;
81848;SDS011;71298;44.104;3.064;2024-01-15T07:49:34;44.33;;;19.00;;
81848;SDS011;71298;44.104;3.064;2024-01-15T07:52:00;49.53;;;21.15;;
81848;SDS011;71298;44.104;3.064;2024-01-15T07:54:26;52.55;;;22.70;;
81848;SDS011;71298;44.104;3.064;2024-01-15T07:56:53;53.03;;;23.95;;
81848;SDS011;71298;44.104;3.064;2024-01-15T07:59:19;53.22;;;22.65;;
81848;SDS011;71298;44.104;3.064;2024-01-15T08:01:45;66.93;;;30.30;;
81848;SDS011;71298;44.104;3.064;2024-01-15T08:04:12;66.95;;;30.88;;
81848;SDS011;71298;44.104;3.064;2024-01-15T08:06:38;42.05;;;18.95;;
81848;SDS011;71298;44.104;3.064;2024-01-15T08:09:05;67.57;;;33.08;;
81848;SDS011;71298;44.104;3.064;2024-01-15T08:11:33;59.85;;;26.25;;
81848;SDS011;71298;44.104;3.064;2024-01-15T08:13:59;40.10;;;20.02;;
81848;SDS011;71298;44.104;3.064;2024-01-15T08:16:25;31.48;;;13.35;;
81848;SDS011;71298;44.104;3.064;2024-01-15T08:19:11;43.67;;;19.80;;
81848;SDS011;71298;44.104;3.064;2024-01-15T08:21:39;48.05;;;20.25;;
81848;SDS011;71298;44.104;3.064;2024-01-15T08:24:05;39.50;;;18.10;;
81848;SDS011;71298;44.104;3.064;2024-01-15T08:26:31;31.55;;;17.35;;
81848;SDS011;71298;44.104;3.064;2024-01-15T08:28:57;34.95;;;15.70;;
81848;SDS011;71298;44.104;3.064;2024-01-15T08:31:24;29.02;;;16.23;;
81848;SDS011;71298;44.104;3.064;2024-01-15T08:33:50;27.77;;;15.82;;
81848;SDS011;71298;44.104;3.064;2024-01-15T08:36:16;33.53;;;17.60;;
81848;SDS011;71298;44.104;3.064;2024-01-15T08:38:42;35.80;;;17.77;;
81848;SDS011;71298;44.104;3.064;2024-01-15T08:41:09;37.70;;;16.75;;
81848;SDS011;71298;44.104;3.064;2024-01-15T08:43:36;36.03;;;16.52;;
81848;SDS011;71298;44.104;3.064;2024-01-15T08:46:02;34.15;;;16.60;;
81848;SDS011;71298;44.104;3.064;2024-01-15T08:48:28;34.85;;;18.38;;
81848;SDS011;71298;44.104;3.064;2024-01-15T08:50:55;31.27;;;14.70;;
81848;SDS011;71298;44.104;3.064;2024-01-15T08:53:21;30.40;;;15.45;;
81848;SDS011;71298;44.104;3.064;2024-01-15T08:55:47;27.80;;;13.73;;
81848;SDS011;71298;44.104;3.064;2024-01-15T08:58:14;26.13;;;13.63;;
81848;SDS011;71298;44.104;3.064;2024-01-15T09:00:40;38.35;;;18.92;;
81848;SDS011;71298;44.104;3.064;2024-01-15T09:03:06;41.63;;;21.30;;
81848;SDS011;71298;44.104;3.064;2024-01-15T09:05:33;35.20;;;18.65;;
81848;SDS011;71298;44.104;3.064;2024-01-15T09:07:59;40.20;;;20.17;;
81848;SDS011;71298;44.104;3.064;2024-01-15T09:10:25;50.50;;;21.17;;
81848;SDS011;71298;44.104;3.064;2024-01-15T09:12:51;38.85;;;18.67;;
81848;SDS011;71298;44.104;3.064;2024-01-15T09:15:17;26.63;;;15.57;;
81848;SDS011;71298;44.104;3.064;2024-01-15T09:17:45;28.70;;;16.27;;
81848;SDS011;71298;44.104;3.064;2024-01-15T09:20:11;31.67;;;16.45;;
81848;SDS011;71298;44.104;3.064;2024-01-15T09:22:40;30.50;;;17.42;;
81848;SDS011;71298;44.104;3.064;2024-01-15T09:25:07;34.65;;;17.83;;
81848;SDS011;71298;44.104;3.064;2024-01-15T09:27:49;34.97;;;18.67;;
81848;SDS011;71298;44.104;3.064;2024-01-15T09:30:15;34.75;;;15.65;;
81848;SDS011;71298;44.104;3.064;2024-01-15T09:32:41;33.97;;;16.30;;
81848;SDS011;71298;44.104;3.064;2024-01-15T09:35:07;36.65;;;15.65;;
81848;SDS011;71298;44.104;3.064;2024-01-15T09:37:33;33.85;;;16.67;;
81848;SDS011;71298;44.104;3.064;2024-01-15T09:39:59;24.63;;;14.30;;
81848;SDS011;71298;44.104;3.064;2024-01-15T09:42:26;33.15;;;16.50;;
81848;SDS011;71298;44.104;3.064;2024-01-15T09:44:52;25.77;;;14.73;;
81848;SDS011;71298;44.104;3.064;2024-01-15T09:47:18;33.45;;;16.35;;
81848;SDS011;71298;44.104;3.064;2024-01-15T09:49:45;27.27;;;14.93;;
81848;SDS011;71298;44.104;3.064;2024-01-15T09:52:11;26.73;;;15.57;;
81848;SDS011;71298;44.104;3.064;2024-01-15T09:54:37;26.73;;;14.00;;
81848;SDS011;71298;44.104;3.064;2024-01-15T09:57:05;24.42;;;12.90;;
81848;SDS011;71298;44.104;3.064;2024-01-15T09:59:31;25.10;;;14.55;;
81848;SDS011;71298;44.104;3.064;2024-01-15T10:01:58;29.05;;;15.02;;
81848;SDS011;71298;44.104;3.064;2024-01-15T10:04:24;28.20;;;14.63;;
81848;SDS011;71298;44.104;3.064;2024-01-15T10:06:51;22.77;;;12.25;;
81848;SDS011;71298;44.104;3.064;2024-01-15T10:09:17;20.67;;;12.02;;
81848;SDS011;71298;44.104;3.064;2024-01-15T10:11:52;32.00;;;15.45;;
81848;SDS011;71298;44.104;3.064;2024-01-15T10:14:19;24.42;;;13.18;;
81848;SDS011;71298;44.104;3.064;2024-01-15T10:16:45;26.30;;;13.10;;
81848;SDS011;71298;44.104;3.064;2024-01-15T10:19:11;23.08;;;13.90;;
81848;SDS011;71298;44.104;3.064;2024-01-15T10:21:37;22.13;;;13.55;;
81848;SDS011;71298;44.104;3.064;2024-01-15T10:24:03;26.38;;;14.95;;
81848;SDS011;71298;44.104;3.064;2024-01-15T10:26:30;31.13;;;15.93;;
81848;SDS011;71298;44.104;3.064;2024-01-15T10:28:57;33.13;;;15.75;;
81848;SDS011;71298;44.104;3.064;2024-01-15T10:31:24;28.60;;;15.10;;
81848;SDS011;71298;44.104;3.064;2024-01-15T10:33:51;26.30;;;14.13;;
81848;SDS011;71298;44.104;3.064;2024-01-15T10:36:17;23.75;;;12.15;;
81848;SDS011;71298;44.104;3.064;2024-01-15T10:38:45;19.13;;;11.63;;
81848;SDS011;71298;44.104;3.064;2024-01-15T10:41:11;22.55;;;10.48;;
81848;SDS011;71298;44.104;3.064;2024-01-15T10:43:37;27.50;;;13.43;;
81848;SDS011;71298;44.104;3.064;2024-01-15T10:46:06;27.48;;;11.57;;
81848;SDS011;71298;44.104;3.064;2024-01-15T10:48:33;26.45;;;12.07;;
81848;SDS011;71298;44.104;3.064;2024-01-15T10:51:00;19.08;;;11.65;;
81848;SDS011;71298;44.104;3.064;2024-01-15T10:53:33;18.38;;;9.38;;
81848;SDS011;71298;44.104;3.064;2024-01-15T10:56:01;18.25;;;9.75;;
81848;SDS011;71298;44.104;3.064;2024-01-15T10:58:28;18.00;;;9.85;;
81848;SDS011;71298;44.104;3.064;2024-01-15T11:00:57;18.48;;;10.18;;
81848;SDS011;71298;44.104;3.064;2024-01-15T11:03:23;17.55;;;10.32;;
81848;SDS011;71298;44.104;3.064;2024-01-15T11:05:49;19.17;;;11.00;;
81848;SDS011;71298;44.104;3.064;2024-01-15T11:08:16;17.20;;;10.10;;
81848;SDS011;71298;44.104;3.064;2024-01-15T11:10:45;18.08;;;9.95;;
81848;SDS011;71298;44.104;3.064;2024-01-15T11:13:15;19.80;;;10.75;;
81848;SDS011;71298;44.104;3.064;2024-01-15T11:15:57;17.00;;;10.48;;
81848;SDS011;71298;44.104;3.064;2024-01-15T11:18:26;18.80;;;10.13;;
81848;SDS011;71298;44.104;3.064;2024-01-15T11:21:19;15.75;;;9.40;;
81848;SDS011;71298;44.104;3.064;2024-01-15T11:26:32;18.83;;;10.63;;
81848;SDS011;71298;44.104;3.064;2024-01-15T11:28:59;18.02;;;10.25;;
81848;SDS011;71298;44.104;3.064;2024-01-15T11:31:30;19.27;;;9.63;;
81848;SDS011;71298;44.104;3.064;2024-01-15T11:34:12;17.08;;;10.00;;
81848;SDS011;71298;44.104;3.064;2024-01-15T11:42:09;19.27;;;10.98;;
81848;SDS011;71298;44.104;3.064;2024-01-15T11:44:40;18.23;;;10.85;;
81848;SDS011;71298;44.104;3.064;2024-01-15T11:47:07;17.02;;;10.15;;
81848;SDS011;71298;44.104;3.064;2024-01-15T11:52:20;16.95;;;10.77;;
81848;SDS011;71298;44.104;3.064;2024-01-15T11:57:46;18.95;;;11.13;;
81848;SDS011;71298;44.104;3.064;2024-01-15T12:00:13;23.95;;;11.13;;
81848;SDS011;71298;44.104;3.064;2024-01-15T12:02:41;18.25;;;9.98;;
81848;SDS011;71298;44.104;3.064;2024-01-15T12:05:07;24.73;;;9.98;;
81848;SDS011;71298;44.104;3.064;2024-01-15T12:07:34;17.13;;;10.02;;
81848;SDS011;71298;44.104;3.064;2024-01-15T12:10:00;21.60;;;10.48;;
81848;SDS011;71298;44.104;3.064;2024-01-15T12:15:23;17.48;;;8.57;;
81848;SDS011;71298;44.104;3.064;2024-01-15T12:17:52;19.65;;;10.10;;
81848;SDS011;71298;44.104;3.064;2024-01-15T12:20:28;22.15;;;8.55;;
81848;SDS011;71298;44.104;3.064;2024-01-15T12:22:55;19.83;;;8.55;;
81848;SDS011;71298;44.104;3.064;2024-01-15T12:25:24;21.23;;;10.27;;
81848;SDS011;71298;44.104;3.064;2024-01-15T12:27:52;17.52;;;9.82;;
81848;SDS011;71298;44.104;3.064;2024-01-15T12:30:18;15.07;;;8.88;;
81848;SDS011;71298;44.104;3.064;2024-01-15T12:32:44;30.58;;;9.90;;
81848;SDS011;71298;44.104;3.064;2024-01-15T12:35:12;28.85;;;11.10;;
81848;SDS011;71298;44.104;3.064;2024-01-15T12:37:39;17.92;;;10.65;;
81848;SDS011;71298;44.104;3.064;2024-01-15T12:40:06;22.23;;;11.30;;
81848;SDS011;71298;44.104;3.064;2024-01-15T12:42:33;19.98;;;11.18;;
81848;SDS011;71298;44.104;3.064;2024-01-15T12:45:00;20.33;;;10.25;;
81848;SDS011;71298;44.104;3.064;2024-01-15T12:47:26;12.45;;;6.90;;
81848;SDS011;71298;44.104;3.064;2024-01-15T12:49:52;14.82;;;7.72;;
81848;SDS011;71298;44.104;3.064;2024-01-15T12:52:19;12.20;;;6.93;;
81848;SDS011;71298;44.104;3.064;2024-01-15T12:54:49;15.93;;;8.65;;
81848;SDS011;71298;44.104;3.064;2024-01-15T12:57:15;17.10;;;9.30;;
81848;SDS011;71298;44.104;3.064;2024-01-15T12:59:42;18.15;;;8.50;;
81848;SDS011;71298;44.104;3.064;2024-01-15T13:02:09;15.65;;;7.97;;
81848;SDS011;71298;44.104;3.064;2024-01-15T13:04:35;13.02;;;7.97;;
81848;SDS011;71298;44.104;3.064;2024-01-15T13:07:01;10.82;;;6.10;;
81848;SDS011;71298;44.104;3.064;2024-01-15T13:09:27;11.98;;;6.43;;
81848;SDS011;71298;44.104;3.064;2024-01-15T13:11:54;19.58;;;9.00;;
81848;SDS011;71298;44.104;3.064;2024-01-15T13:14:20;20.17;;;8.98;;
81848;SDS011;71298;44.104;3.064;2024-01-15T13:16:47;14.80;;;8.07;;
81848;SDS011;71298;44.104;3.064;2024-01-15T13:19:16;18.70;;;7.68;;
81848;SDS011;71298;44.104;3.064;2024-01-15T13:21:43;11.63;;;7.13;;
81848;SDS011;71298;44.104;3.064;2024-01-15T13:24:09;15.52;;;7.70;;
81848;SDS011;71298;44.104;3.064;2024-01-15T13:26:36;12.35;;;6.25;;
81848;SDS011;71298;44.104;3.064;2024-01-15T13:29:02;10.80;;;6.53;;
81848;SDS011;71298;44.104;3.064;2024-01-15T13:31:29;12.02;;;6.65;;
81848;SDS011;71298;44.104;3.064;2024-01-15T13:33:55;11.82;;;6.20;;
81848;SDS011;71298;44.104;3.064;2024-01-15T13:36:21;10.63;;;6.72;;
81848;SDS011;71298;44.104;3.064;2024-01-15T13:38:49;12.07;;;7.65;;
81848;SDS011;71298;44.104;3.064;2024-01-15T13:41:17;11.85;;;6.80;;
81848;SDS011;71298;44.104;3.064;2024-01-15T13:43:45;12.63;;;7.05;;
81848;SDS011;71298;44.104;3.064;2024-01-15T13:46:11;12.10;;;6.47;;
81848;SDS011;71298;44.104;3.064;2024-01-15T13:48:37;11.98;;;6.18;;
81848;SDS011;71298;44.104;3.064;2024-01-15T13:51:03;9.77;;;5.88;;
81848;SDS011;71298;44.104;3.064;2024-01-15T13:53:29;12.02;;;7.00;;
81848;SDS011;71298;44.104;3.064;2024-01-15T13:55:55;11.02;;;6.30;;
81848;SDS011;71298;44.104;3.064;2024-01-15T13:58:21;13.30;;;7.15;;
81848;SDS011;71298;44.104;3.064;2024-01-15T14:00:48;11.77;;;7.18;;
81848;SDS011;71298;44.104;3.064;2024-01-15T14:03:15;17.10;;;7.68;;
81848;SDS011;71298;44.104;3.064;2024-01-15T14:05:41;12.50;;;7.10;;
81848;SDS011;71298;44.104;3.064;2024-01-15T14:08:07;12.63;;;7.65;;
81848;SDS011;71298;44.104;3.064;2024-01-15T14:10:33;16.40;;;7.63;;
81848;SDS011;71298;44.104;3.064;2024-01-15T14:12:59;18.15;;;6.93;;
81848;SDS011;71298;44.104;3.064;2024-01-15T14:15:27;8.25;;;4.60;;
81848;SDS011;71298;44.104;3.064;2024-01-15T14:17:53;8.63;;;4.93;;
81848;SDS011;71298;44.104;3.064;2024-01-15T14:20:19;10.00;;;5.65;;
81848;SDS011;71298;44.104;3.064;2024-01-15T14:22:45;10.75;;;6.57;;
81848;SDS011;71298;44.104;3.064;2024-01-15T14:25:11;12.18;;;5.90;;
81848;SDS011;71298;44.104;3.064;2024-01-15T14:27:37;13.88;;;5.85;;
81848;SDS011;71298;44.104;3.064;2024-01-15T14:30:03;11.23;;;6.32;;
81848;SDS011;71298;44.104;3.064;2024-01-15T14:32:30;16.00;;;7.15;;
81848;SDS011;71298;44.104;3.064;2024-01-15T14:34:56;16.90;;;6.25;;
81848;SDS011;71298;44.104;3.064;2024-01-15T14:37:23;12.45;;;6.47;;
81848;SDS011;71298;44.104;3.064;2024-01-15T14:39:49;11.80;;;6.43;;
81848;SDS011;71298;44.104;3.064;2024-01-15T14:42:15;14.98;;;6.35;;
81848;SDS011;71298;44.104;3.064;2024-01-15T14:44:41;22.15;;;6.88;;
81848;SDS011;71298;44.104;3.064;2024-01-15T14:47:07;12.45;;;7.18;;
81848;SDS011;71298;44.104;3.064;2024-01-15T14:49:33;19.48;;;7.22;;
81848;SDS011;71298;44.104;3.064;2024-01-15T14:51:59;14.95;;;7.13;;
81848;SDS011;71298;44.104;3.064;2024-01-15T14:54:25;13.20;;;6.53;;
81848;SDS011;71298;44.104;3.064;2024-01-15T14:56:51;13.55;;;5.90;;
81848;SDS011;71298;44.104;3.064;2024-01-15T14:59:17;10.27;;;5.78;;
81848;SDS011;71298;44.104;3.064;2024-01-15T15:01:43;19.25;;;5.97;;
81848;SDS011;71298;44.104;3.064;2024-01-15T15:04:09;17.23;;;7.80;;
81848;SDS011;71298;44.104;3.064;2024-01-15T15:06:36;12.80;;;6.07;;
81848;SDS011;71298;44.104;3.064;2024-01-15T15:09:02;12.52;;;6.07;;
81848;SDS011;71298;44.104;3.064;2024-01-15T15:11:34;13.18;;;7.47;;
81848;SDS011;71298;44.104;3.064;2024-01-15T15:14:00;14.82;;;6.38;;
81848;SDS011;71298;44.104;3.064;2024-01-15T15:16:27;9.85;;;6.13;;
81848;SDS011;71298;44.104;3.064;2024-01-15T15:18:53;13.40;;;7.03;;
81848;SDS011;71298;44.104;3.064;2024-01-15T15:21:20;12.13;;;6.22;;
81848;SDS011;71298;44.104;3.064;2024-01-15T15:23:46;13.40;;;6.72;;
81848;SDS011;71298;44.104;3.064;2024-01-15T15:26:12;14.23;;;6.35;;
